Cooks, Michigan
Current Conditions -  °F | °C
As of 12:14 AM on Saturday 25 Oct 2014 (Local Time) from KISQ Reporting Station
Moderate Fog Moderate Fog  
Wind Chill: 45°   Ceiling: 300
Heat Index: 49°   Visibility: 0.5mi
Dew Point: 49°   Wind: 9mph
Humidity: 100%   Direction: 210°SSW
Pressure: 29.79"   Gusts: 16mph
Location:  45.92°N, 86.48°W
Report Text: KISQ 250414Z AUTO 21008G14KT 1/2SM FG OVC003 10/10 A2979 RMK AO2 T00950095
Loading
Personal Weather Stations






























Interactive Weather Map
Tropical Storm Tracking
New forecast layout! Learn more

10-Day Weather Forecast

Advertisements
Track Severe Weather on mobile